sensor_id;sensor_type;location;lat;lon;timestamp;temperature;humidity
40758;DHT22;26462;47.384;19.218;2023-07-13T00:02:07;24.70;95.70
40758;DHT22;26462;47.384;19.218;2023-07-13T00:04:35;24.80;94.90
40758;DHT22;26462;47.384;19.218;2023-07-13T00:07:03;24.70;94.20
40758;DHT22;26462;47.384;19.218;2023-07-13T00:09:30;24.80;94.00
40758;DHT22;26462;47.384;19.218;2023-07-13T00:11:57;24.80;93.50
40758;DHT22;26462;47.384;19.218;2023-07-13T00:14:26;24.80;93.70
40758;DHT22;26462;47.384;19.218;2023-07-13T00:16:55;24.80;95.40
40758;DHT22;26462;47.384;19.218;2023-07-13T00:19:22;24.80;96.00
40758;DHT22;26462;47.384;19.218;2023-07-13T00:21:50;24.80;96.20
40758;DHT22;26462;47.384;19.218;2023-07-13T00:24:18;24.80;96.10
40758;DHT22;26462;47.384;19.218;2023-07-13T00:26:51;24.70;96.40
40758;DHT22;26462;47.384;19.218;2023-07-13T00:29:19;24.70;96.40
40758;DHT22;26462;47.384;19.218;2023-07-13T00:31:48;24.70;96.70
40758;DHT22;26462;47.384;19.218;2023-07-13T00:34:16;24.70;96.60
40758;DHT22;26462;47.384;19.218;2023-07-13T00:36:43;24.70;95.70
40758;DHT22;26462;47.384;19.218;2023-07-13T00:39:10;24.70;95.70
40758;DHT22;26462;47.384;19.218;2023-07-13T00:41:37;24.80;95.30
40758;DHT22;26462;47.384;19.218;2023-07-13T00:44:05;24.80;94.90
40758;DHT22;26462;47.384;19.218;2023-07-13T00:46:34;25.00;94.80
40758;DHT22;26462;47.384;19.218;2023-07-13T00:49:05;25.00;94.60
40758;DHT22;26462;47.384;19.218;2023-07-13T00:51:37;25.00;94.20
40758;DHT22;26462;47.384;19.218;2023-07-13T00:54:10;25.00;93.60
40758;DHT22;26462;47.384;19.218;2023-07-13T00:56:39;25.00;93.40
40758;DHT22;26462;47.384;19.218;2023-07-13T00:59:11;24.90;93.50
40758;DHT22;26462;47.384;19.218;2023-07-13T01:01:39;24.90;93.50
40758;DHT22;26462;47.384;19.218;2023-07-13T01:04:06;24.90;93.60
40758;DHT22;26462;47.384;19.218;2023-07-13T01:06:37;24.90;93.70
40758;DHT22;26462;47.384;19.218;2023-07-13T01:09:06;24.80;93.60
40758;DHT22;26462;47.384;19.218;2023-07-13T01:11:34;24.80;93.40
40758;DHT22;26462;47.384;19.218;2023-07-13T01:14:03;24.90;93.30
40758;DHT22;26462;47.384;19.218;2023-07-13T01:16:32;24.90;93.40
40758;DHT22;26462;47.384;19.218;2023-07-13T01:19:00;24.90;93.50
40758;DHT22;26462;47.384;19.218;2023-07-13T01:21:31;24.90;93.50
40758;DHT22;26462;47.384;19.218;2023-07-13T01:23:59;24.90;93.30
40758;DHT22;26462;47.384;19.218;2023-07-13T01:26:26;24.80;93.40
40758;DHT22;26462;47.384;19.218;2023-07-13T01:28:54;24.80;93.40
40758;DHT22;26462;47.384;19.218;2023-07-13T01:31:23;24.90;93.60
40758;DHT22;26462;47.384;19.218;2023-07-13T01:33:51;24.80;93.40
40758;DHT22;26462;47.384;19.218;2023-07-13T01:36:20;24.80;93.50
40758;DHT22;26462;47.384;19.218;2023-07-13T01:38:48;24.70;93.60
40758;DHT22;26462;47.384;19.218;2023-07-13T01:41:15;24.80;93.80
40758;DHT22;26462;47.384;19.218;2023-07-13T01:43:42;24.70;93.50
40758;DHT22;26462;47.384;19.218;2023-07-13T01:46:09;24.70;94.00
40758;DHT22;26462;47.384;19.218;2023-07-13T01:48:50;24.70;93.70
40758;DHT22;26462;47.384;19.218;2023-07-13T01:51:18;24.70;93.70
40758;DHT22;26462;47.384;19.218;2023-07-13T01:53:46;24.60;93.60
40758;DHT22;26462;47.384;19.218;2023-07-13T01:56:14;24.50;93.90
40758;DHT22;26462;47.384;19.218;2023-07-13T01:58:41;24.50;94.20
40758;DHT22;26462;47.384;19.218;2023-07-13T02:01:08;24.50;94.40
40758;DHT22;26462;47.384;19.218;2023-07-13T02:03:36;24.50;94.40
40758;DHT22;26462;47.384;19.218;2023-07-13T02:06:04;24.50;94.50
40758;DHT22;26462;47.384;19.218;2023-07-13T02:08:32;24.50;94.60
40758;DHT22;26462;47.384;19.218;2023-07-13T02:11:02;24.40;94.90
40758;DHT22;26462;47.384;19.218;2023-07-13T02:13:30;24.40;95.20
40758;DHT22;26462;47.384;19.218;2023-07-13T02:15:57;24.40;95.20
40758;DHT22;26462;47.384;19.218;2023-07-13T02:18:24;24.40;95.30
40758;DHT22;26462;47.384;19.218;2023-07-13T02:20:51;24.40;95.40
40758;DHT22;26462;47.384;19.218;2023-07-13T02:23:19;24.40;95.60
40758;DHT22;26462;47.384;19.218;2023-07-13T02:25:46;24.40;95.60
40758;DHT22;26462;47.384;19.218;2023-07-13T02:28:15;24.40;95.60
40758;DHT22;26462;47.384;19.218;2023-07-13T02:30:42;24.10;96.00
40758;DHT22;26462;47.384;19.218;2023-07-13T02:33:09;24.20;96.30
40758;DHT22;26462;47.384;19.218;2023-07-13T02:35:37;24.30;96.60
40758;DHT22;26462;47.384;19.218;2023-07-13T02:38:04;24.30;96.70
40758;DHT22;26462;47.384;19.218;2023-07-13T02:40:31;24.30;96.60
40758;DHT22;26462;47.384;19.218;2023-07-13T02:43:00;24.30;96.70
40758;DHT22;26462;47.384;19.218;2023-07-13T02:45:27;24.20;96.70
40758;DHT22;26462;47.384;19.218;2023-07-13T02:47:54;24.20;96.80
40758;DHT22;26462;47.384;19.218;2023-07-13T02:50:21;24.20;97.00
40758;DHT22;26462;47.384;19.218;2023-07-13T02:52:49;24.10;97.10
40758;DHT22;26462;47.384;19.218;2023-07-13T02:55:16;24.10;97.20
40758;DHT22;26462;47.384;19.218;2023-07-13T02:57:43;24.00;97.50
40758;DHT22;26462;47.384;19.218;2023-07-13T03:00:11;24.10;97.90
40758;DHT22;26462;47.384;19.218;2023-07-13T03:02:38;24.10;97.90
40758;DHT22;26462;47.384;19.218;2023-07-13T03:05:06;24.00;98.20
40758;DHT22;26462;47.384;19.218;2023-07-13T03:07:34;24.00;98.00
40758;DHT22;26462;47.384;19.218;2023-07-13T03:10:03;24.00;98.60
40758;DHT22;26462;47.384;19.218;2023-07-13T03:12:40;24.00;98.40
40758;DHT22;26462;47.384;19.218;2023-07-13T03:15:13;23.90;98.50
40758;DHT22;26462;47.384;19.218;2023-07-13T03:17:42;23.90;98.60
40758;DHT22;26462;47.384;19.218;2023-07-13T03:20:10;23.80;98.80
40758;DHT22;26462;47.384;19.218;2023-07-13T03:22:37;23.70;99.30
40758;DHT22;26462;47.384;19.218;2023-07-13T03:25:05;23.80;99.50
40758;DHT22;26462;47.384;19.218;2023-07-13T03:27:32;23.80;99.50
40758;DHT22;26462;47.384;19.218;2023-07-13T03:29:59;23.80;99.40
40758;DHT22;26462;47.384;19.218;2023-07-13T03:32:26;23.90;99.40
40758;DHT22;26462;47.384;19.218;2023-07-13T03:34:54;23.80;99.50
40758;DHT22;26462;47.384;19.218;2023-07-13T03:37:21;23.80;99.90
40758;DHT22;26462;47.384;19.218;2023-07-13T03:39:49;23.80;99.90
40758;DHT22;26462;47.384;19.218;2023-07-13T03:42:19;23.80;99.90
40758;DHT22;26462;47.384;19.218;2023-07-13T03:44:46;23.90;99.90
40758;DHT22;26462;47.384;19.218;2023-07-13T03:47:19;24.00;99.90
40758;DHT22;26462;47.384;19.218;2023-07-13T03:49:47;24.00;99.80
40758;DHT22;26462;47.384;19.218;2023-07-13T03:52:14;24.10;99.80
40758;DHT22;26462;47.384;19.218;2023-07-13T03:54:41;24.10;99.90
40758;DHT22;26462;47.384;19.218;2023-07-13T03:57:09;24.20;99.70
40758;DHT22;26462;47.384;19.218;2023-07-13T03:59:36;24.20;99.90
40758;DHT22;26462;47.384;19.218;2023-07-13T04:02:04;24.10;99.90
40758;DHT22;26462;47.384;19.218;2023-07-13T04:04:33;24.20;99.90
40758;DHT22;26462;47.384;19.218;2023-07-13T04:07:00;24.30;99.70
40758;DHT22;26462;47.384;19.218;2023-07-13T04:09:28;24.30;99.50
40758;DHT22;26462;47.384;19.218;2023-07-13T04:11:55;24.30;99.50
40758;DHT22;26462;47.384;19.218;2023-07-13T04:14:22;24.30;99.20
40758;DHT22;26462;47.384;19.218;2023-07-13T04:16:49;24.30;99.40
40758;DHT22;26462;47.384;19.218;2023-07-13T04:19:17;24.30;99.50
40758;DHT22;26462;47.384;19.218;2023-07-13T04:21:44;24.30;99.40
40758;DHT22;26462;47.384;19.218;2023-07-13T04:24:12;24.30;98.90
40758;DHT22;26462;47.384;19.218;2023-07-13T04:26:39;24.20;99.00
40758;DHT22;26462;47.384;19.218;2023-07-13T04:29:07;24.20;98.60
40758;DHT22;26462;47.384;19.218;2023-07-13T04:31:34;24.10;99.10
40758;DHT22;26462;47.384;19.218;2023-07-13T04:34:02;24.20;99.50
40758;DHT22;26462;47.384;19.218;2023-07-13T04:36:29;24.10;99.40
40758;DHT22;26462;47.384;19.218;2023-07-13T04:38:57;24.10;99.70
40758;DHT22;26462;47.384;19.218;2023-07-13T04:41:24;23.90;99.90
40758;DHT22;26462;47.384;19.218;2023-07-13T04:43:51;24.00;99.90
40758;DHT22;26462;47.384;19.218;2023-07-13T04:46:21;24.10;99.90
40758;DHT22;26462;47.384;19.218;2023-07-13T04:48:49;24.10;99.90
40758;DHT22;26462;47.384;19.218;2023-07-13T04:51:17;24.10;99.90
40758;DHT22;26462;47.384;19.218;2023-07-13T04:53:45;24.10;99.90
40758;DHT22;26462;47.384;19.218;2023-07-13T04:56:12;24.10;99.90
40758;DHT22;26462;47.384;19.218;2023-07-13T04:58:39;24.00;99.90
40758;DHT22;26462;47.384;19.218;2023-07-13T05:01:07;24.00;99.90
40758;DHT22;26462;47.384;19.218;2023-07-13T05:03:36;24.00;99.90
40758;DHT22;26462;47.384;19.218;2023-07-13T05:06:06;24.00;99.90
40758;DHT22;26462;47.384;19.218;2023-07-13T05:08:33;23.90;99.90
40758;DHT22;26462;47.384;19.218;2023-07-13T05:11:03;23.80;99.90
40758;DHT22;26462;47.384;19.218;2023-07-13T05:13:30;23.80;99.90
40758;DHT22;26462;47.384;19.218;2023-07-13T05:16:02;23.80;99.90
40758;DHT22;26462;47.384;19.218;2023-07-13T05:18:30;23.70;99.90
40758;DHT22;26462;47.384;19.218;2023-07-13T05:23:26;23.60;99.90
40758;DHT22;26462;47.384;19.218;2023-07-13T05:25:53;23.30;99.90
40758;DHT22;26462;47.384;19.218;2023-07-13T05:28:21;23.10;99.90
40758;DHT22;26462;47.384;19.218;2023-07-13T05:30:49;22.70;99.90
40758;DHT22;26462;47.384;19.218;2023-07-13T05:33:16;22.40;99.90
40758;DHT22;26462;47.384;19.218;2023-07-13T05:35:43;22.10;99.90
40758;DHT22;26462;47.384;19.218;2023-07-13T05:38:11;22.30;99.90
40758;DHT22;26462;47.384;19.218;2023-07-13T05:40:38;22.30;99.90
40758;DHT22;26462;47.384;19.218;2023-07-13T05:43:05;22.10;99.90
40758;DHT22;26462;47.384;19.218;2023-07-13T05:45:32;22.10;99.90
40758;DHT22;26462;47.384;19.218;2023-07-13T05:47:59;22.30;99.90
40758;DHT22;26462;47.384;19.218;2023-07-13T05:50:26;22.20;99.90
40758;DHT22;26462;47.384;19.218;2023-07-13T05:52:54;21.90;99.90
40758;DHT22;26462;47.384;19.218;2023-07-13T05:55:21;21.80;99.90
40758;DHT22;26462;47.384;19.218;2023-07-13T05:57:48;21.70;99.90
40758;DHT22;26462;47.384;19.218;2023-07-13T06:00:16;21.50;99.90
40758;DHT22;26462;47.384;19.218;2023-07-13T06:02:43;21.20;99.90
40758;DHT22;26462;47.384;19.218;2023-07-13T06:05:10;21.20;99.90
40758;DHT22;26462;47.384;19.218;2023-07-13T06:07:38;21.20;99.90
40758;DHT22;26462;47.384;19.218;2023-07-13T06:10:05;21.10;99.90
40758;DHT22;26462;47.384;19.218;2023-07-13T06:12:32;21.10;99.90
40758;DHT22;26462;47.384;19.218;2023-07-13T06:14:59;21.00;99.90
40758;DHT22;26462;47.384;19.218;2023-07-13T06:17:27;20.90;99.90
40758;DHT22;26462;47.384;19.218;2023-07-13T06:19:54;20.90;99.90
40758;DHT22;26462;47.384;19.218;2023-07-13T06:22:21;20.90;99.90
40758;DHT22;26462;47.384;19.218;2023-07-13T06:24:48;20.90;99.90
40758;DHT22;26462;47.384;19.218;2023-07-13T06:27:15;21.00;99.90
40758;DHT22;26462;47.384;19.218;2023-07-13T06:29:42;20.90;99.90
40758;DHT22;26462;47.384;19.218;2023-07-13T06:32:12;20.70;99.90
40758;DHT22;26462;47.384;19.218;2023-07-13T06:34:39;20.60;99.90
40758;DHT22;26462;47.384;19.218;2023-07-13T06:37:09;20.50;99.90
40758;DHT22;26462;47.384;19.218;2023-07-13T06:39:36;20.40;99.90
40758;DHT22;26462;47.384;19.218;2023-07-13T06:42:04;20.50;99.90
40758;DHT22;26462;47.384;19.218;2023-07-13T06:44:32;20.60;99.90
40758;DHT22;26462;47.384;19.218;2023-07-13T06:46:59;20.70;99.90
40758;DHT22;26462;47.384;19.218;2023-07-13T06:49:26;20.80;99.90
40758;DHT22;26462;47.384;19.218;2023-07-13T06:51:53;20.80;99.90
40758;DHT22;26462;47.384;19.218;2023-07-13T06:54:20;20.80;99.90
40758;DHT22;26462;47.384;19.218;2023-07-13T06:56:47;21.00;99.90
40758;DHT22;26462;47.384;19.218;2023-07-13T06:59:14;21.10;99.90
40758;DHT22;26462;47.384;19.218;2023-07-13T07:01:41;21.30;99.90
40758;DHT22;26462;47.384;19.218;2023-07-13T07:04:08;21.40;99.90
40758;DHT22;26462;47.384;19.218;2023-07-13T07:06:36;21.40;99.90
40758;DHT22;26462;47.384;19.218;2023-07-13T07:09:03;21.40;99.90
40758;DHT22;26462;47.384;19.218;2023-07-13T07:11:30;21.70;99.90
40758;DHT22;26462;47.384;19.218;2023-07-13T07:13:57;21.80;99.90
40758;DHT22;26462;47.384;19.218;2023-07-13T07:16:24;22.20;99.90
40758;DHT22;26462;47.384;19.218;2023-07-13T07:18:52;22.50;99.90
40758;DHT22;26462;47.384;19.218;2023-07-13T07:21:19;23.00;99.90
40758;DHT22;26462;47.384;19.218;2023-07-13T07:23:46;23.20;99.90
40758;DHT22;26462;47.384;19.218;2023-07-13T07:26:13;23.40;99.90
40758;DHT22;26462;47.384;19.218;2023-07-13T07:28:41;23.40;99.90
40758;DHT22;26462;47.384;19.218;2023-07-13T07:31:14;23.40;99.90
40758;DHT22;26462;47.384;19.218;2023-07-13T07:33:44;23.40;99.90
40758;DHT22;26462;47.384;19.218;2023-07-13T07:36:11;23.50;99.90
40758;DHT22;26462;47.384;19.218;2023-07-13T07:38:42;23.90;99.90
40758;DHT22;26462;47.384;19.218;2023-07-13T07:41:09;23.50;99.90
40758;DHT22;26462;47.384;19.218;2023-07-13T07:43:40;23.60;99.90
40758;DHT22;26462;47.384;19.218;2023-07-13T07:46:07;23.80;99.90
40758;DHT22;26462;47.384;19.218;2023-07-13T07:48:34;24.10;99.90
40758;DHT22;26462;47.384;19.218;2023-07-13T07:51:02;24.50;99.90
40758;DHT22;26462;47.384;19.218;2023-07-13T07:53:29;24.60;99.90
40758;DHT22;26462;47.384;19.218;2023-07-13T07:56:00;24.50;99.90
40758;DHT22;26462;47.384;19.218;2023-07-13T07:58:47;24.40;99.90
40758;DHT22;26462;47.384;19.218;2023-07-13T08:01:17;24.30;99.90
40758;DHT22;26462;47.384;19.218;2023-07-13T08:03:47;24.40;99.90
40758;DHT22;26462;47.384;19.218;2023-07-13T08:06:17;24.40;99.90
40758;DHT22;26462;47.384;19.218;2023-07-13T08:08:50;24.50;99.90
40758;DHT22;26462;47.384;19.218;2023-07-13T08:11:17;24.30;99.90
40758;DHT22;26462;47.384;19.218;2023-07-13T08:13:47;24.10;99.90
40758;DHT22;26462;47.384;19.218;2023-07-13T08:16:19;24.30;99.90
40758;DHT22;26462;47.384;19.218;2023-07-13T08:18:46;24.40;99.90
40758;DHT22;26462;47.384;19.218;2023-07-13T08:21:13;24.50;99.90
40758;DHT22;26462;47.384;19.218;2023-07-13T08:23:40;24.50;99.90
40758;DHT22;26462;47.384;19.218;2023-07-13T08:26:09;24.60;99.90
40758;DHT22;26462;47.384;19.218;2023-07-13T08:28:36;24.60;99.90
40758;DHT22;26462;47.384;19.218;2023-07-13T08:31:05;24.50;99.90
40758;DHT22;26462;47.384;19.218;2023-07-13T08:33:35;24.60;99.90
40758;DHT22;26462;47.384;19.218;2023-07-13T08:36:02;25.10;99.40
40758;DHT22;26462;47.384;19.218;2023-07-13T08:38:30;25.40;99.60
40758;DHT22;26462;47.384;19.218;2023-07-13T08:40:57;25.50;97.70
40758;DHT22;26462;47.384;19.218;2023-07-13T08:43:36;25.80;97.70
40758;DHT22;26462;47.384;19.218;2023-07-13T08:46:23;26.00;97.70
40758;DHT22;26462;47.384;19.218;2023-07-13T08:49:09;25.90;94.30
40758;DHT22;26462;47.384;19.218;2023-07-13T08:54:18;26.20;94.40
40758;DHT22;26462;47.384;19.218;2023-07-13T08:56:46;26.20;94.80
40758;DHT22;26462;47.384;19.218;2023-07-13T08:59:17;26.40;95.50
40758;DHT22;26462;47.384;19.218;2023-07-13T09:05:01;26.60;95.50
40758;DHT22;26462;47.384;19.218;2023-07-13T09:10:19;26.80;95.30
40758;DHT22;26462;47.384;19.218;2023-07-13T09:15:41;26.80;93.40
40758;DHT22;26462;47.384;19.218;2023-07-13T09:18:36;26.90;92.80
40758;DHT22;26462;47.384;19.218;2023-07-13T09:21:15;26.90;92.80
40758;DHT22;26462;47.384;19.218;2023-07-13T09:23:43;26.90;93.10
40758;DHT22;26462;47.384;19.218;2023-07-13T09:28:47;27.10;92.40
40758;DHT22;26462;47.384;19.218;2023-07-13T09:31:19;27.10;91.70
40758;DHT22;26462;47.384;19.218;2023-07-13T09:33:49;27.20;92.00
40758;DHT22;26462;47.384;19.218;2023-07-13T09:36:19;27.20;91.40
40758;DHT22;26462;47.384;19.218;2023-07-13T09:38:48;27.30;92.20
40758;DHT22;26462;47.384;19.218;2023-07-13T09:44:15;27.40;91.10
40758;DHT22;26462;47.384;19.218;2023-07-13T09:46:52;27.40;91.10
40758;DHT22;26462;47.384;19.218;2023-07-13T09:49:24;27.40;90.70
40758;DHT22;26462;47.384;19.218;2023-07-13T09:52:09;27.30;90.70
40758;DHT22;26462;47.384;19.218;2023-07-13T09:54:38;27.50;90.60
40758;DHT22;26462;47.384;19.218;2023-07-13T09:57:19;27.60;90.50
40758;DHT22;26462;47.384;19.218;2023-07-13T10:00:00;27.50;91.20
40758;DHT22;26462;47.384;19.218;2023-07-13T10:02:35;27.10;91.20
40758;DHT22;26462;47.384;19.218;2023-07-13T10:05:06;26.90;90.90
40758;DHT22;26462;47.384;19.218;2023-07-13T10:07:40;26.60;90.50
40758;DHT22;26462;47.384;19.218;2023-07-13T10:10:22;26.40;90.60
40758;DHT22;26462;47.384;19.218;2023-07-13T10:12:49;26.40;91.00
40758;DHT22;26462;47.384;19.218;2023-07-13T10:15:23;26.30;91.30
40758;DHT22;26462;47.384;19.218;2023-07-13T10:17:54;26.20;90.90
40758;DHT22;26462;47.384;19.218;2023-07-13T10:20:22;26.20;91.40
40758;DHT22;26462;47.384;19.218;2023-07-13T10:23:05;26.30;91.40
40758;DHT22;26462;47.384;19.218;2023-07-13T10:25:39;26.30;90.50
40758;DHT22;26462;47.384;19.218;2023-07-13T10:28:30;26.20;90.50
40758;DHT22;26462;47.384;19.218;2023-07-13T10:30:59;26.50;90.50
40758;DHT22;26462;47.384;19.218;2023-07-13T10:33:27;26.50;90.60
40758;DHT22;26462;47.384;19.218;2023-07-13T10:36:27;26.40;91.10
40758;DHT22;26462;47.384;19.218;2023-07-13T10:38:50;26.30;90.60
40758;DHT22;26462;47.384;19.218;2023-07-13T10:41:21;26.40;90.70
40758;DHT22;26462;47.384;19.218;2023-07-13T10:43:52;26.50;90.80
40758;DHT22;26462;47.384;19.218;2023-07-13T10:46:22;26.50;90.70
40758;DHT22;26462;47.384;19.218;2023-07-13T10:48:55;26.50;90.70
40758;DHT22;26462;47.384;19.218;2023-07-13T10:51:23;26.60;90.70
40758;DHT22;26462;47.384;19.218;2023-07-13T10:56:40;27.00;89.20
40758;DHT22;26462;47.384;19.218;2023-07-13T10:59:23;27.00;89.80
40758;DHT22;26462;47.384;19.218;2023-07-13T11:02:10;27.30;88.10
40758;DHT22;26462;47.384;19.218;2023-07-13T11:04:48;27.30;87.80
40758;DHT22;26462;47.384;19.218;2023-07-13T11:07:25;27.50;88.30
40758;DHT22;26462;47.384;19.218;2023-07-13T11:09:55;27.50;83.40
40758;DHT22;26462;47.384;19.218;2023-07-13T11:25:27;27.90;82.80
40758;DHT22;26462;47.384;19.218;2023-07-13T11:30:42;28.00;83.60
40758;DHT22;26462;47.384;19.218;2023-07-13T11:33:20;28.10;83.40
40758;DHT22;26462;47.384;19.218;2023-07-13T11:36:12;28.10;80.70
40758;DHT22;26462;47.384;19.218;2023-07-13T11:41:36;28.10;80.60
40758;DHT22;26462;47.384;19.218;2023-07-13T11:44:10;28.10;78.40
40758;DHT22;26462;47.384;19.218;2023-07-13T11:46:38;28.10;79.20
40758;DHT22;26462;47.384;19.218;2023-07-13T11:49:07;28.20;78.70
40758;DHT22;26462;47.384;19.218;2023-07-13T11:51:35;28.10;79.40
40758;DHT22;26462;47.384;19.218;2023-07-13T11:56:58;28.10;80.70
40758;DHT22;26462;47.384;19.218;2023-07-13T11:59:30;28.00;79.30
40758;DHT22;26462;47.384;19.218;2023-07-13T12:01:58;28.00;78.00
40758;DHT22;26462;47.384;19.218;2023-07-13T12:04:28;28.10;79.10
40758;DHT22;26462;47.384;19.218;2023-07-13T12:06:57;28.00;77.70
40758;DHT22;26462;47.384;19.218;2023-07-13T12:09:27;28.10;80.80
40758;DHT22;26462;47.384;19.218;2023-07-13T12:11:57;28.10;78.20
40758;DHT22;26462;47.384;19.218;2023-07-13T12:14:24;28.20;80.40
40758;DHT22;26462;47.384;19.218;2023-07-13T12:16:53;28.20;78.90
40758;DHT22;26462;47.384;19.218;2023-07-13T12:19:23;28.30;80.80
40758;DHT22;26462;47.384;19.218;2023-07-13T12:21:55;28.40;79.60
40758;DHT22;26462;47.384;19.218;2023-07-13T12:24:23;28.40;78.30
40758;DHT22;26462;47.384;19.218;2023-07-13T12:27:00;28.30;77.70
40758;DHT22;26462;47.384;19.218;2023-07-13T12:29:28;28.30;78.00
40758;DHT22;26462;47.384;19.218;2023-07-13T12:31:55;28.30;78.50
40758;DHT22;26462;47.384;19.218;2023-07-13T12:34:25;28.40;76.10
40758;DHT22;26462;47.384;19.218;2023-07-13T12:36:58;28.30;76.00
40758;DHT22;26462;47.384;19.218;2023-07-13T12:39:45;28.20;78.00
40758;DHT22;26462;47.384;19.218;2023-07-13T12:42:24;28.30;76.50
40758;DHT22;26462;47.384;19.218;2023-07-13T12:45:19;28.30;75.80
40758;DHT22;26462;47.384;19.218;2023-07-13T12:47:55;28.30;76.80
40758;DHT22;26462;47.384;19.218;2023-07-13T12:50:27;28.40;75.00
40758;DHT22;26462;47.384;19.218;2023-07-13T12:53:02;28.40;75.90
40758;DHT22;26462;47.384;19.218;2023-07-13T12:55:30;28.40;77.30
40758;DHT22;26462;47.384;19.218;2023-07-13T12:58:03;28.50;76.40
40758;DHT22;26462;47.384;19.218;2023-07-13T13:00:35;28.40;76.60
40758;DHT22;26462;47.384;19.218;2023-07-13T13:06:17;28.50;75.90
40758;DHT22;26462;47.384;19.218;2023-07-13T13:08:49;28.50;76.20
40758;DHT22;26462;47.384;19.218;2023-07-13T13:11:20;28.50;78.40
40758;DHT22;26462;47.384;19.218;2023-07-13T13:13:47;28.50;77.20
40758;DHT22;26462;47.384;19.218;2023-07-13T13:19:14;28.60;78.00
40758;DHT22;26462;47.384;19.218;2023-07-13T13:21:46;28.60;74.80
40758;DHT22;26462;47.384;19.218;2023-07-13T13:24:18;28.50;75.40
40758;DHT22;26462;47.384;19.218;2023-07-13T13:26:48;28.50;75.10
40758;DHT22;26462;47.384;19.218;2023-07-13T13:29:17;28.40;76.20
40758;DHT22;26462;47.384;19.218;2023-07-13T13:31:45;28.20;76.20
40758;DHT22;26462;47.384;19.218;2023-07-13T13:34:14;28.20;79.90
40758;DHT22;26462;47.384;19.218;2023-07-13T13:36:42;28.30;78.40
40758;DHT22;26462;47.384;19.218;2023-07-13T13:41:46;28.20;77.30
40758;DHT22;26462;47.384;19.218;2023-07-13T13:44:15;28.20;77.10
40758;DHT22;26462;47.384;19.218;2023-07-13T13:46:48;28.20;76.90
40758;DHT22;26462;47.384;19.218;2023-07-13T13:49:27;28.10;77.00
40758;DHT22;26462;47.384;19.218;2023-07-13T13:51:55;28.20;77.50
40758;DHT22;26462;47.384;19.218;2023-07-13T13:54:24;28.20;75.90
40758;DHT22;26462;47.384;19.218;2023-07-13T13:56:53;28.20;75.70
40758;DHT22;26462;47.384;19.218;2023-07-13T13:59:20;28.30;77.10
40758;DHT22;26462;47.384;19.218;2023-07-13T14:01:48;28.30;75.70
40758;DHT22;26462;47.384;19.218;2023-07-13T14:04:19;28.30;76.50
40758;DHT22;26462;47.384;19.218;2023-07-13T14:06:47;28.30;75.90
40758;DHT22;26462;47.384;19.218;2023-07-13T14:09:17;28.30;76.20
40758;DHT22;26462;47.384;19.218;2023-07-13T14:11:46;28.30;76.80
40758;DHT22;26462;47.384;19.218;2023-07-13T14:14:20;28.20;76.00
40758;DHT22;26462;47.384;19.218;2023-07-13T14:16:49;28.10;76.80
40758;DHT22;26462;47.384;19.218;2023-07-13T14:19:21;28.10;76.40
40758;DHT22;26462;47.384;19.218;2023-07-13T14:21:48;28.10;75.90
40758;DHT22;26462;47.384;19.218;2023-07-13T14:24:16;28.00;75.90
40758;DHT22;26462;47.384;19.218;2023-07-13T14:26:46;28.00;76.30
40758;DHT22;26462;47.384;19.218;2023-07-13T14:29:15;28.00;75.60
40758;DHT22;26462;47.384;19.218;2023-07-13T14:31:49;27.90;75.40
40758;DHT22;26462;47.384;19.218;2023-07-13T14:34:16;27.90;76.30
40758;DHT22;26462;47.384;19.218;2023-07-13T14:36:52;27.90;76.20
40758;DHT22;26462;47.384;19.218;2023-07-13T14:39:23;27.80;76.50
40758;DHT22;26462;47.384;19.218;2023-07-13T14:41:52;27.80;77.00
40758;DHT22;26462;47.384;19.218;2023-07-13T14:44:30;27.80;77.30
40758;DHT22;26462;47.384;19.218;2023-07-13T14:47:00;27.80;78.60
40758;DHT22;26462;47.384;19.218;2023-07-13T14:49:42;27.80;78.70
40758;DHT22;26462;47.384;19.218;2023-07-13T14:52:28;27.80;77.90
40758;DHT22;26462;47.384;19.218;2023-07-13T14:54:55;27.70;78.30
40758;DHT22;26462;47.384;19.218;2023-07-13T14:57:22;27.70;79.60
40758;DHT22;26462;47.384;19.218;2023-07-13T14:59:49;27.70;79.10
40758;DHT22;26462;47.384;19.218;2023-07-13T15:02:31;27.60;79.10
40758;DHT22;26462;47.384;19.218;2023-07-13T15:05:00;27.60;80.10
40758;DHT22;26462;47.384;19.218;2023-07-13T15:07:28;27.60;80.00
40758;DHT22;26462;47.384;19.218;2023-07-13T15:09:55;27.50;80.10
40758;DHT22;26462;47.384;19.218;2023-07-13T15:12:23;27.50;80.40
40758;DHT22;26462;47.384;19.218;2023-07-13T15:14:50;27.50;80.40
40758;DHT22;26462;47.384;19.218;2023-07-13T15:17:25;27.40;81.60
40758;DHT22;26462;47.384;19.218;2023-07-13T15:19:53;27.40;80.50
40758;DHT22;26462;47.384;19.218;2023-07-13T15:22:21;27.30;81.20
40758;DHT22;26462;47.384;19.218;2023-07-13T15:24:48;27.30;80.80
40758;DHT22;26462;47.384;19.218;2023-07-13T15:27:16;27.30;82.60
40758;DHT22;26462;47.384;19.218;2023-07-13T15:29:43;27.20;82.40
40758;DHT22;26462;47.384;19.218;2023-07-13T15:32:14;27.20;81.50
40758;DHT22;26462;47.384;19.218;2023-07-13T15:34:41;27.20;81.60
40758;DHT22;26462;47.384;19.218;2023-07-13T15:37:14;27.10;80.80
40758;DHT22;26462;47.384;19.218;2023-07-13T15:39:42;27.10;81.80
40758;DHT22;26462;47.384;19.218;2023-07-13T15:42:20;27.10;82.20
40758;DHT22;26462;47.384;19.218;2023-07-13T15:44:48;27.10;81.60
40758;DHT22;26462;47.384;19.218;2023-07-13T15:47:16;27.10;82.30
40758;DHT22;26462;47.384;19.218;2023-07-13T15:49:45;27.00;83.70
40758;DHT22;26462;47.384;19.218;2023-07-13T15:52:21;27.00;82.10
40758;DHT22;26462;47.384;19.218;2023-07-13T15:54:49;26.90;81.60
40758;DHT22;26462;47.384;19.218;2023-07-13T15:57:17;26.90;82.20
40758;DHT22;26462;47.384;19.218;2023-07-13T15:59:44;26.90;82.90
40758;DHT22;26462;47.384;19.218;2023-07-13T16:02:20;26.90;83.00
40758;DHT22;26462;47.384;19.218;2023-07-13T16:04:47;26.90;83.00
40758;DHT22;26462;47.384;19.218;2023-07-13T16:07:17;26.80;82.90
40758;DHT22;26462;47.384;19.218;2023-07-13T16:09:45;26.80;83.80
40758;DHT22;26462;47.384;19.218;2023-07-13T16:12:14;26.80;84.40
40758;DHT22;26462;47.384;19.218;2023-07-13T16:14:42;26.80;84.60
40758;DHT22;26462;47.384;19.218;2023-07-13T16:17:11;26.70;84.50
40758;DHT22;26462;47.384;19.218;2023-07-13T16:19:40;26.70;84.80
40758;DHT22;26462;47.384;19.218;2023-07-13T16:22:16;26.70;84.50
40758;DHT22;26462;47.384;19.218;2023-07-13T16:24:43;26.70;85.20